createdAt,value
2022-08-27T00:00:04.725Z,1017.23
2022-08-27T00:02:01.972Z,1017.18
2022-08-27T00:04:02.676Z,1017.18
2022-08-27T00:06:02.037Z,1017.14
2022-08-27T00:08:01.988Z,1017.14
2022-08-27T00:10:02.395Z,1017.14
2022-08-27T00:12:02.551Z,1017.14
2022-08-27T00:14:01.914Z,1017.02
2022-08-27T00:16:02.274Z,1017.02
2022-08-27T00:18:02.263Z,1017.34
2022-08-27T00:20:01.735Z,1017.34
2022-08-27T00:22:01.643Z,1017.03
2022-08-27T00:24:02.194Z,1017.03
2022-08-27T00:26:02.451Z,1017.02
2022-08-27T00:28:01.626Z,1017.02
2022-08-27T00:30:01.979Z,1017.1
2022-08-27T00:32:02.397Z,1017.1
2022-08-27T00:34:01.851Z,1017.01
2022-08-27T00:36:01.969Z,1017.01
2022-08-27T00:38:01.892Z,1016.98
2022-08-27T00:40:02.602Z,1016.98
2022-08-27T00:42:01.731Z,1016.94
2022-08-27T00:44:02.405Z,1016.94
2022-08-27T00:46:02.529Z,1017.04
2022-08-27T00:48:02.414Z,1017.04
2022-08-27T00:50:02.481Z,1017.06
2022-08-27T00:52:02.592Z,1017.06
2022-08-27T00:54:02.363Z,1017.03
2022-08-27T00:56:01.885Z,1017.03
2022-08-27T00:58:05.172Z,1017.06
2022-08-27T01:00:04.879Z,1017.06
2022-08-27T01:02:02.159Z,1017.09
2022-08-27T01:04:02.485Z,1017.09
2022-08-27T01:06:01.946Z,1017.09
2022-08-27T01:08:02.022Z,1017.09
2022-08-27T01:10:02.069Z,1017.13
2022-08-27T01:12:01.942Z,1017.13
2022-08-27T01:14:01.984Z,1017.13
2022-08-27T01:16:02.516Z,1017.13
2022-08-27T01:18:02.666Z,1017.14
2022-08-27T01:20:02.207Z,1017.14
2022-08-27T01:22:02.317Z,1017.07
2022-08-27T01:24:02.563Z,1017.07
2022-08-27T01:26:01.961Z,1017.15
2022-08-27T01:28:02.660Z,1017.15
2022-08-27T01:30:02.475Z,1017.11
2022-08-27T01:32:02.167Z,1017.11
2022-08-27T01:34:02.487Z,1017.16
2022-08-27T01:36:01.808Z,1017.16
2022-08-27T01:38:01.888Z,1017.04
2022-08-27T01:40:02.660Z,1017.05
2022-08-27T01:42:02.128Z,1017.05
2022-08-27T01:44:01.645Z,1017.1
2022-08-27T01:46:01.907Z,1017.1
2022-08-27T01:48:01.992Z,1016.98
2022-08-27T01:50:02.327Z,1016.98
2022-08-27T01:52:02.314Z,1016.99
2022-08-27T01:54:02.355Z,1016.99
2022-08-27T01:56:02.392Z,1017.05
2022-08-27T01:58:01.749Z,1017.05
2022-08-27T02:00:10.230Z,1017
2022-08-27T02:02:02.395Z,1017
2022-08-27T02:04:02.052Z,1016.88
2022-08-27T02:06:01.858Z,1016.88
2022-08-27T02:08:03.695Z,1016.95
2022-08-27T02:10:02.140Z,1016.95
2022-08-27T02:12:01.902Z,1016.93
2022-08-27T02:14:12.934Z,1016.93
2022-08-27T02:16:02.047Z,1016.95
2022-08-27T02:18:01.993Z,1016.95
2022-08-27T02:20:02.256Z,1016.92
2022-08-27T02:22:02.001Z,1016.92
2022-08-27T02:24:01.804Z,1016.98
2022-08-27T02:26:01.861Z,1016.98
2022-08-27T02:28:02.587Z,1016.86
2022-08-27T02:30:01.922Z,1016.86
2022-08-27T02:32:01.999Z,1016.91
2022-08-27T02:34:01.718Z,1016.91
2022-08-27T02:36:02.724Z,1016.87
2022-08-27T02:38:01.737Z,1016.87
2022-08-27T02:40:02.521Z,1016.98
2022-08-27T02:42:01.832Z,1016.98
2022-08-27T02:44:10.345Z,1016.83
2022-08-27T02:46:02.512Z,1016.83
2022-08-27T02:48:02.036Z,1016.82
2022-08-27T02:50:02.645Z,1016.82
2022-08-27T02:52:02.494Z,1016.78
2022-08-27T02:54:02.261Z,1016.78
2022-08-27T02:56:02.599Z,1016.82
2022-08-27T02:58:01.833Z,1016.82
2022-08-27T03:00:06.071Z,1016.75
2022-08-27T03:02:02.504Z,1016.75
2022-08-27T03:04:02.285Z,1016.67
2022-08-27T03:06:01.776Z,1016.67
2022-08-27T03:08:01.961Z,1016.59
2022-08-27T03:10:02.175Z,1016.59
2022-08-27T03:12:02.048Z,1016.61
2022-08-27T03:14:02.431Z,1016.61
2022-08-27T03:16:02.497Z,1016.5
2022-08-27T03:18:01.774Z,1016.5
2022-08-27T03:20:02.349Z,1016.63
2022-08-27T03:22:01.638Z,1016.63
2022-08-27T03:24:14.719Z,1016.57
2022-08-27T03:26:01.838Z,1016.57
2022-08-27T03:28:03.008Z,1016.6
2022-08-27T03:30:04.509Z,1016.6
2022-08-27T03:32:02.548Z,1016.61
2022-08-27T03:34:02.465Z,1016.61
2022-08-27T03:36:02.551Z,1016.56
2022-08-27T03:38:02.035Z,1016.56
2022-08-27T03:40:02.564Z,1016.66
2022-08-27T03:42:01.984Z,1016.66
2022-08-27T03:44:02.239Z,1016.56
2022-08-27T03:46:02.863Z,1016.56
2022-08-27T03:48:02.310Z,1016.65
2022-08-27T03:50:02.703Z,1016.65
2022-08-27T03:52:02.186Z,1016.54
2022-08-27T03:54:02.557Z,1016.54
2022-08-27T03:56:02.369Z,1016.59
2022-08-27T03:58:01.699Z,1016.59
2022-08-27T04:00:05.816Z,1016.53
2022-08-27T04:02:02.192Z,1016.53
2022-08-27T04:04:02.023Z,1016.61
2022-08-27T04:06:01.764Z,1016.61
2022-08-27T04:08:02.373Z,1016.6
2022-08-27T04:10:02.587Z,1016.6
2022-08-27T04:12:01.662Z,1016.58
2022-08-27T04:14:02.156Z,1016.58
2022-08-27T04:16:01.904Z,1016.54
2022-08-27T04:18:02.722Z,1016.54
2022-08-27T04:20:35.442Z,1016.52
2022-08-27T04:22:02.349Z,1016.52
2022-08-27T04:24:02.578Z,1016.61
2022-08-27T04:26:01.624Z,1016.61
2022-08-27T04:28:02.088Z,1016.62
2022-08-27T04:30:02.571Z,1016.62
2022-08-27T04:32:01.813Z,1016.49
2022-08-27T04:34:02.547Z,1016.49
2022-08-27T04:36:02.326Z,1016.54
2022-08-27T04:38:02.299Z,1016.54
2022-08-27T04:40:02.542Z,1016.62
2022-08-27T04:42:02.165Z,1016.62
2022-08-27T04:44:01.696Z,1016.62
2022-08-27T04:46:02.418Z,1016.62
2022-08-27T04:48:01.657Z,1016.7
2022-08-27T04:50:06.243Z,1016.7
2022-08-27T04:52:02.920Z,1016.74
2022-08-27T04:54:02.684Z,1016.74
2022-08-27T04:56:02.426Z,1016.7
2022-08-27T04:58:01.912Z,1016.7
2022-08-27T05:00:05.529Z,1016.76
2022-08-27T05:02:05.084Z,1016.76
2022-08-27T05:04:01.963Z,1016.69
2022-08-27T05:06:01.619Z,1016.8
2022-08-27T05:08:01.996Z,1016.8
2022-08-27T05:10:01.905Z,1016.79
2022-08-27T05:12:02.415Z,1016.79
2022-08-27T05:14:02.574Z,1016.83
2022-08-27T05:16:02.058Z,1016.83
2022-08-27T05:18:01.937Z,1016.83
2022-08-27T05:20:02.640Z,1016.83
2022-08-27T05:22:02.233Z,1016.83
2022-08-27T05:24:01.737Z,1016.83
2022-08-27T05:26:02.101Z,1016.85
2022-08-27T05:28:01.960Z,1016.85
2022-08-27T05:30:02.517Z,1016.93
2022-08-27T05:32:02.377Z,1016.93
2022-08-27T05:34:10.153Z,1016.9
2022-08-27T05:36:02.136Z,1016.9
2022-08-27T05:38:02.336Z,1016.92
2022-08-27T05:40:02.422Z,1016.92
2022-08-27T05:42:02.366Z,1016.95
2022-08-27T05:44:01.848Z,1016.95
2022-08-27T05:46:02.460Z,1017.04
2022-08-27T05:48:02.047Z,1017.04
2022-08-27T05:50:02.631Z,1017.02
2022-08-27T05:52:01.977Z,1017.02
2022-08-27T05:54:08.787Z,1016.96
2022-08-27T05:56:03.785Z,1016.96
2022-08-27T05:58:01.872Z,1016.82
2022-08-27T06:00:04.764Z,1016.82
2022-08-27T06:02:02.202Z,1016.94
2022-08-27T06:04:01.956Z,1016.94
2022-08-27T06:06:02.223Z,1016.81
2022-08-27T06:08:01.701Z,1016.81
2022-08-27T06:10:01.871Z,1016.97
2022-08-27T06:12:01.839Z,1016.97
2022-08-27T06:14:02.030Z,1016.83
2022-08-27T06:16:02.483Z,1016.83
2022-08-27T06:18:01.635Z,1016.92
2022-08-27T06:20:02.116Z,1016.92
2022-08-27T06:22:11.197Z,1016.94
2022-08-27T06:24:01.800Z,1016.94
2022-08-27T06:26:02.239Z,1016.99
2022-08-27T06:28:01.816Z,1016.99
2022-08-27T06:30:02.206Z,1016.85
2022-08-27T06:32:01.878Z,1016.85
2022-08-27T06:34:07.948Z,1016.84
2022-08-27T06:36:02.219Z,1016.84
2022-08-27T06:38:02.378Z,1016.86
2022-08-27T06:40:02.018Z,1016.86
2022-08-27T06:42:01.616Z,1016.92
2022-08-27T06:44:02.370Z,1016.92
2022-08-27T06:46:02.338Z,1016.93
2022-08-27T06:48:02.447Z,1016.93
2022-08-27T06:50:02.288Z,1016.94
2022-08-27T06:52:02.020Z,1016.94
2022-08-27T06:54:02.646Z,1016.96
2022-08-27T06:56:02.337Z,1016.96
2022-08-27T06:58:01.682Z,1016.96
2022-08-27T07:00:05.445Z,1016.96
2022-08-27T07:02:02.496Z,1016.89
2022-08-27T07:04:02.384Z,1016.89
2022-08-27T07:06:02.040Z,1016.96
2022-08-27T07:08:02.310Z,1016.96
2022-08-27T07:10:04.424Z,1016.88
2022-08-27T07:12:02.310Z,1016.88
2022-08-27T07:14:02.163Z,1016.94
2022-08-27T07:16:02.612Z,1016.94
2022-08-27T07:18:05.042Z,1016.99
2022-08-27T07:20:02.607Z,1016.99
2022-08-27T07:22:01.911Z,1016.95
2022-08-27T07:24:01.731Z,1016.95
2022-08-27T07:26:02.067Z,1017.01
2022-08-27T07:28:01.999Z,1017.01
2022-08-27T07:30:02.349Z,1017.04
2022-08-27T07:32:02.355Z,1017.04
2022-08-27T07:34:01.966Z,1017.05
2022-08-27T07:36:02.312Z,1017.05
2022-08-27T07:38:02.475Z,1017.07
2022-08-27T07:40:02.571Z,1017.07
2022-08-27T07:42:02.008Z,1017.1
2022-08-27T07:44:02.427Z,1017.1
2022-08-27T07:46:02.483Z,1017.18
2022-08-27T07:48:02.363Z,1017.18
2022-08-27T07:50:02.387Z,1017.15
2022-08-27T07:52:01.789Z,1017.15
2022-08-27T07:54:02.320Z,1017.11
2022-08-27T07:56:02.138Z,1017.11
2022-08-27T07:58:02.369Z,1017.2
2022-08-27T08:00:05.198Z,1017.2
2022-08-27T08:02:02.514Z,1017.19
2022-08-27T08:04:01.666Z,1017.19
2022-08-27T08:06:01.737Z,1017.21
2022-08-27T08:08:01.990Z,1017.21
2022-08-27T08:10:02.339Z,1017.14
2022-08-27T08:12:02.364Z,1017.14
2022-08-27T08:14:02.395Z,1017.15
2022-08-27T08:16:02.069Z,1017.15
2022-08-27T08:18:02.449Z,1017.27
2022-08-27T08:20:41.500Z,1017.27
2022-08-27T08:22:06.245Z,1017.39
2022-08-27T08:24:01.616Z,1017.39
2022-08-27T08:26:02.226Z,1017.42
2022-08-27T08:28:01.834Z,1017.42
2022-08-27T08:30:02.433Z,1017.41
2022-08-27T08:32:02.273Z,1017.52
2022-08-27T08:34:02.212Z,1017.52
2022-08-27T08:36:02.497Z,1017.56
2022-08-27T08:38:02.255Z,1017.56
2022-08-27T08:40:02.337Z,1017.51
2022-08-27T08:42:02.390Z,1017.51
2022-08-27T08:44:06.071Z,1017.52
2022-08-27T08:46:01.966Z,1017.52
2022-08-27T08:48:02.115Z,1017.6
2022-08-27T08:50:02.286Z,1017.6
2022-08-27T08:52:01.634Z,1017.53
2022-08-27T08:54:02.028Z,1017.53
2022-08-27T08:56:02.437Z,1017.57
2022-08-27T08:58:02.269Z,1017.57
2022-08-27T09:00:06.842Z,1017.64
2022-08-27T09:02:01.821Z,1017.64
2022-08-27T09:04:02.518Z,1017.7
2022-08-27T09:06:01.867Z,1017.7
2022-08-27T09:08:37.699Z,1017.48
2022-08-27T09:10:02.462Z,1017.48
2022-08-27T09:12:02.444Z,1017.6
2022-08-27T09:14:02.142Z,1017.6
2022-08-27T09:16:02.024Z,1017.59
2022-08-27T09:18:04.822Z,1017.59
2022-08-27T09:20:02.408Z,1017.68
2022-08-27T09:22:02.178Z,1017.68
2022-08-27T09:24:02.491Z,1017.66
2022-08-27T09:26:01.839Z,1017.66
2022-08-27T09:28:02.312Z,1017.7
2022-08-27T09:30:01.968Z,1017.7
2022-08-27T09:32:02.401Z,1017.58
2022-08-27T09:34:01.970Z,1017.58
2022-08-27T09:36:02.025Z,1017.74
2022-08-27T09:38:02.037Z,1017.74
2022-08-27T09:40:02.531Z,1017.77
2022-08-27T09:42:02.190Z,1017.77
2022-08-27T09:44:02.152Z,1017.79
2022-08-27T09:46:01.955Z,1017.79
2022-08-27T09:48:01.719Z,1017.73
2022-08-27T09:50:07.361Z,1017.73
2022-08-27T09:52:02.236Z,1017.72
2022-08-27T09:54:02.496Z,1017.72
2022-08-27T09:56:03.547Z,1017.66
2022-08-27T09:58:02.354Z,1017.66
2022-08-27T10:00:05.534Z,1017.58
2022-08-27T10:02:04.614Z,1017.58
2022-08-27T10:04:02.739Z,1017.64
2022-08-27T10:06:01.892Z,1017.64
2022-08-27T10:08:01.683Z,1017.67
2022-08-27T10:10:02.694Z,1017.67
2022-08-27T10:12:01.980Z,1017.62
2022-08-27T10:14:02.266Z,1017.62
2022-08-27T10:16:02.230Z,1017.59
2022-08-27T10:18:01.935Z,1017.59
2022-08-27T10:20:02.387Z,1017.62
2022-08-27T10:22:01.763Z,1017.62
2022-08-27T10:24:02.404Z,1017.65
2022-08-27T10:26:02.408Z,1017.65
2022-08-27T10:28:02.145Z,1017.52
2022-08-27T10:30:01.886Z,1017.52
2022-08-27T10:32:02.098Z,1017.59
2022-08-27T10:34:03.655Z,1017.59
2022-08-27T10:36:04.139Z,1017.66
2022-08-27T10:38:02.646Z,1017.66
2022-08-27T10:40:02.586Z,1017.62
2022-08-27T10:42:02.415Z,1017.62
2022-08-27T10:44:01.586Z,1017.58
2022-08-27T10:46:01.957Z,1017.58
2022-08-27T10:48:01.729Z,1017.59
2022-08-27T10:50:01.683Z,1017.59
2022-08-27T10:52:08.496Z,1017.59
2022-08-27T10:54:02.229Z,1017.59
2022-08-27T10:56:01.892Z,1017.46
2022-08-27T10:58:02.403Z,1017.46
2022-08-27T11:00:04.909Z,1017.65
2022-08-27T11:02:02.209Z,1017.65
2022-08-27T11:04:02.431Z,1017.66
2022-08-27T11:06:02.342Z,1017.66
2022-08-27T11:08:01.606Z,1017.66
2022-08-27T11:10:02.219Z,1017.66
2022-08-27T11:12:15.889Z,1017.6
2022-08-27T11:14:01.708Z,1017.6
2022-08-27T11:16:02.200Z,1017.69
2022-08-27T11:18:02.072Z,1017.69
2022-08-27T11:20:02.195Z,1017.64
2022-08-27T11:22:01.802Z,1017.64
2022-08-27T11:24:02.139Z,1017.57
2022-08-27T11:26:02.996Z,1017.57
2022-08-27T11:28:01.738Z,1017.63
2022-08-27T11:30:01.701Z,1017.63
2022-08-27T11:32:02.486Z,1017.63
2022-08-27T11:34:01.871Z,1017.63
2022-08-27T11:36:02.476Z,1017.65
2022-08-27T11:38:01.868Z,1017.65
2022-08-27T11:40:02.294Z,1017.48
2022-08-27T11:42:02.521Z,1017.48
2022-08-27T11:44:02.075Z,1017.47
2022-08-27T11:46:02.238Z,1017.47
2022-08-27T11:48:02.196Z,1017.49
2022-08-27T11:50:02.411Z,1017.49
2022-08-27T11:52:02.286Z,1017.55
2022-08-27T11:54:02.444Z,1017.51
2022-08-27T11:56:01.612Z,1017.51
2022-08-27T11:58:02.445Z,1017.53
2022-08-27T12:00:05.546Z,1017.53
2022-08-27T12:02:01.795Z,1017.47
2022-08-27T12:04:02.244Z,1017.47
2022-08-27T12:06:02.226Z,1017.47
2022-08-27T12:08:02.481Z,1017.47
2022-08-27T12:10:02.283Z,1017.52
2022-08-27T12:12:02.519Z,1017.52
2022-08-27T12:14:02.103Z,1017.29
2022-08-27T12:16:02.480Z,1017.29
2022-08-27T12:18:02.351Z,1017.34
2022-08-27T12:20:02.540Z,1017.34
2022-08-27T12:22:01.653Z,1017.39
2022-08-27T12:24:01.909Z,1017.39
2022-08-27T12:26:02.266Z,1017.45
2022-08-27T12:28:02.064Z,1017.45
2022-08-27T12:30:01.995Z,1017.54
2022-08-27T12:32:02.562Z,1017.54
2022-08-27T12:34:02.121Z,1017.44
2022-08-27T12:36:01.655Z,1017.44
2022-08-27T12:38:02.642Z,1017.48
2022-08-27T12:40:02.214Z,1017.48
2022-08-27T12:42:01.947Z,1017.55
2022-08-27T12:44:02.542Z,1017.55
2022-08-27T12:46:02.562Z,1017.53
2022-08-27T12:48:02.316Z,1017.53
2022-08-27T12:50:02.539Z,1017.6
2022-08-27T12:52:02.542Z,1017.6
2022-08-27T12:54:01.681Z,1017.53
2022-08-27T12:56:01.781Z,1017.53
2022-08-27T12:58:01.906Z,1017.5
2022-08-27T13:00:07.724Z,1017.5
2022-08-27T13:02:02.369Z,1017.42
2022-08-27T13:04:02.271Z,1017.42
2022-08-27T13:06:02.623Z,1017.51
2022-08-27T13:08:01.807Z,1017.51
2022-08-27T13:10:02.311Z,1017.39
2022-08-27T13:12:01.809Z,1017.39
2022-08-27T13:14:02.580Z,1017.37
2022-08-27T13:16:02.503Z,1017.37
2022-08-27T13:18:03.352Z,1017.33
2022-08-27T13:20:02.462Z,1017.33
2022-08-27T13:22:01.630Z,1017.25
2022-08-27T13:24:01.894Z,1017.25
2022-08-27T13:26:02.285Z,1017.33
2022-08-27T13:28:02.479Z,1017.33
2022-08-27T13:30:02.766Z,1017.33
2022-08-27T13:32:02.064Z,1017.33
2022-08-27T13:34:01.843Z,1017.33
2022-08-27T13:36:02.249Z,1017.33
2022-08-27T13:38:02.453Z,1017.29
2022-08-27T13:40:02.747Z,1017.29
2022-08-27T13:42:02.076Z,1017.3
2022-08-27T13:44:02.265Z,1017.3
2022-08-27T13:46:02.329Z,1017.32
2022-08-27T13:48:02.369Z,1017.32
2022-08-27T13:50:02.689Z,1017.32
2022-08-27T13:52:02.563Z,1017.32
2022-08-27T13:54:01.915Z,1017.34
2022-08-27T13:56:02.565Z,1017.34
2022-08-27T13:58:02.119Z,1017.4
2022-08-27T14:00:07.990Z,1017.4
2022-08-27T14:02:02.488Z,1017.36
2022-08-27T14:04:01.639Z,1017.36
2022-08-27T14:06:01.775Z,1017.29
2022-08-27T14:08:02.242Z,1017.29
2022-08-27T14:10:02.605Z,1017.29
2022-08-27T14:12:01.875Z,1017.29
2022-08-27T14:14:02.220Z,1017.39
2022-08-27T14:16:02.731Z,1017.39
2022-08-27T14:18:02.244Z,1017.42
2022-08-27T14:20:02.456Z,1017.42
2022-08-27T14:22:02.403Z,1017.35
2022-08-27T14:24:02.403Z,1017.35
2022-08-27T14:26:02.262Z,1017.29
2022-08-27T14:28:02.503Z,1017.29
2022-08-27T14:30:01.945Z,1017.35
2022-08-27T14:32:02.399Z,1017.35
2022-08-27T14:34:02.602Z,1017.38
2022-08-27T14:36:02.134Z,1017.38
2022-08-27T14:38:02.175Z,1017.43
2022-08-27T14:40:03.148Z,1017.43
2022-08-27T14:42:02.514Z,1017.42
2022-08-27T14:44:02.385Z,1017.42
2022-08-27T14:46:01.845Z,1017.47
2022-08-27T14:48:02.796Z,1017.47
2022-08-27T14:50:02.352Z,1017.49
2022-08-27T14:52:05.152Z,1017.49
2022-08-27T14:54:01.997Z,1017.48
2022-08-27T14:56:02.459Z,1017.48
2022-08-27T14:58:01.818Z,1017.48
2022-08-27T15:00:01.825Z,1017.48
2022-08-27T15:02:02.657Z,1017.58
2022-08-27T15:04:01.849Z,1017.58
2022-08-27T15:06:01.945Z,1017.59
2022-08-27T15:08:01.821Z,1017.59
2022-08-27T15:10:02.356Z,1017.64
2022-08-27T15:12:02.343Z,1017.64
2022-08-27T15:14:01.897Z,1017.59
2022-08-27T15:16:02.440Z,1017.59
2022-08-27T15:18:02.195Z,1017.66
2022-08-27T15:20:02.666Z,1017.69
2022-08-27T15:22:02.092Z,1017.69
2022-08-27T15:24:02.395Z,1017.65
2022-08-27T15:26:01.790Z,1017.65
2022-08-27T15:28:02.151Z,1017.54
2022-08-27T15:30:01.938Z,1017.54
2022-08-27T15:32:01.838Z,1017.69
2022-08-27T15:34:02.431Z,1017.69
2022-08-27T15:36:04.590Z,1017.54
2022-08-27T15:38:02.025Z,1017.54
2022-08-27T15:40:02.029Z,1017.66
2022-08-27T15:42:07.373Z,1017.66
2022-08-27T15:44:02.196Z,1017.67
2022-08-27T15:46:01.833Z,1017.67
2022-08-27T15:48:01.909Z,1017.72
2022-08-27T15:50:02.184Z,1017.72
2022-08-27T15:52:01.709Z,1017.73
2022-08-27T15:54:01.652Z,1017.73
2022-08-27T15:56:02.254Z,1017.68
2022-08-27T15:58:02.476Z,1017.68
2022-08-27T16:00:05.827Z,1017.54
2022-08-27T16:02:02.052Z,1017.54
2022-08-27T16:04:01.681Z,1017.6
2022-08-27T16:06:05.401Z,1017.6
2022-08-27T16:08:02.540Z,1017.54
2022-08-27T16:10:01.669Z,1017.54
2022-08-27T16:12:02.243Z,1017.71
2022-08-27T16:14:01.625Z,1017.71
2022-08-27T16:16:02.997Z,1017.68
2022-08-27T16:18:02.254Z,1017.68
2022-08-27T16:20:01.865Z,1017.57
2022-08-27T16:22:02.555Z,1017.57
2022-08-27T16:24:01.806Z,1017.68
2022-08-27T16:26:02.190Z,1017.68
2022-08-27T16:28:01.617Z,1017.52
2022-08-27T16:30:02.335Z,1017.52
2022-08-27T16:32:01.860Z,1017.59
2022-08-27T16:34:02.156Z,1017.59
2022-08-27T16:36:01.921Z,1017.68
2022-08-27T16:38:01.650Z,1017.68
2022-08-27T16:40:02.013Z,1017.58
2022-08-27T16:42:01.827Z,1017.58
2022-08-27T16:44:01.882Z,1017.67
2022-08-27T16:46:01.909Z,1017.67
2022-08-27T16:48:02.477Z,1017.7
2022-08-27T16:50:01.956Z,1017.7
2022-08-27T16:52:01.833Z,1017.54
2022-08-27T16:54:02.366Z,1017.54
2022-08-27T16:56:02.338Z,1017.51
2022-08-27T16:58:02.387Z,1017.51
2022-08-27T17:00:07.589Z,1017.51
2022-08-27T17:02:01.869Z,1017.51
2022-08-27T17:04:29.310Z,1017.56
2022-08-27T17:06:02.202Z,1017.56
2022-08-27T17:08:02.840Z,1017.56
2022-08-27T17:10:06.297Z,1017.56
2022-08-27T17:12:02.095Z,1017.56
2022-08-27T17:14:02.215Z,1017.56
2022-08-27T17:16:01.930Z,1017.56
2022-08-27T17:18:02.502Z,1017.56
2022-08-27T17:20:01.886Z,1017.59
2022-08-27T17:22:01.996Z,1017.59
2022-08-27T17:24:02.149Z,1017.7
2022-08-27T17:26:01.695Z,1017.7
2022-08-27T17:28:01.561Z,1017.57
2022-08-27T17:30:02.580Z,1017.57
2022-08-27T17:32:01.705Z,1017.58
2022-08-27T17:34:02.514Z,1017.58
2022-08-27T17:36:02.405Z,1017.62
2022-08-27T17:38:01.921Z,1017.62
2022-08-27T17:40:02.763Z,1017.59
2022-08-27T17:42:02.206Z,1017.59
2022-08-27T17:44:02.203Z,1017.66
2022-08-27T17:46:02.091Z,1017.66
2022-08-27T17:48:20.529Z,1017.73
2022-08-27T17:50:01.792Z,1017.73
2022-08-27T17:52:02.424Z,1017.67
2022-08-27T17:54:01.900Z,1017.67
2022-08-27T17:56:02.059Z,1017.63
2022-08-27T17:58:02.388Z,1017.63
2022-08-27T18:00:05.593Z,1017.75
2022-08-27T18:02:01.776Z,1017.75
2022-08-27T18:04:02.592Z,1017.83
2022-08-27T18:06:01.928Z,1017.83
2022-08-27T18:08:02.016Z,1017.81
2022-08-27T18:10:02.241Z,1017.81
2022-08-27T18:12:02.183Z,1017.74
2022-08-27T18:14:05.299Z,1017.74
2022-08-27T18:16:01.755Z,1017.81
2022-08-27T18:18:02.094Z,1017.81
2022-08-27T18:20:01.743Z,1017.71
2022-08-27T18:22:01.894Z,1017.71
2022-08-27T18:24:01.852Z,1017.97
2022-08-27T18:26:01.910Z,1017.97
2022-08-27T18:28:01.850Z,1018.06
2022-08-27T18:30:02.491Z,1018.06
2022-08-27T18:32:02.002Z,1018.03
2022-08-27T18:34:01.690Z,1018.03
2022-08-27T18:36:02.518Z,1018.12
2022-08-27T18:38:01.825Z,1018.12
2022-08-27T18:40:02.648Z,1018.11
2022-08-27T18:42:01.579Z,1018.21
2022-08-27T18:44:02.019Z,1018.21
2022-08-27T18:46:01.944Z,1018.17
2022-08-27T18:48:02.467Z,1018.17
2022-08-27T18:50:02.116Z,1018.28
2022-08-27T18:52:01.560Z,1018.28
2022-08-27T18:54:01.732Z,1018.11
2022-08-27T18:56:01.672Z,1018.11
2022-08-27T18:58:01.830Z,1018.39
2022-08-27T19:00:06.677Z,1018.39
2022-08-27T19:02:02.204Z,1018.33
2022-08-27T19:04:02.380Z,1018.33
2022-08-27T19:06:09.894Z,1018.28
2022-08-27T19:08:02.041Z,1018.28
2022-08-27T19:10:02.003Z,1018.31
2022-08-27T19:12:02.479Z,1018.31
2022-08-27T19:14:02.371Z,1018.33
2022-08-27T19:16:01.897Z,1018.33
2022-08-27T19:18:01.775Z,1018.45
2022-08-27T19:20:02.190Z,1018.45
2022-08-27T19:22:07.360Z,1018.5
2022-08-27T19:24:01.960Z,1018.5
2022-08-27T19:26:02.555Z,1018.59
2022-08-27T19:28:02.742Z,1018.59
2022-08-27T19:30:02.543Z,1018.54
2022-08-27T19:32:02.249Z,1018.54
2022-08-27T19:34:02.367Z,1018.65
2022-08-27T19:36:02.513Z,1018.65
2022-08-27T19:38:03.823Z,1018.75
2022-08-27T19:40:02.427Z,1018.75
2022-08-27T19:42:01.902Z,1018.62
2022-08-27T19:44:02.078Z,1018.62
2022-08-27T19:46:04.879Z,1018.7
2022-08-27T19:48:02.002Z,1018.7
2022-08-27T19:50:02.527Z,1018.78
2022-08-27T19:52:08.724Z,1018.78
2022-08-27T19:54:02.343Z,1018.88
2022-08-27T19:56:02.132Z,1018.88
2022-08-27T19:58:02.320Z,1018.8
2022-08-27T20:00:05.241Z,1018.8
2022-08-27T20:02:02.225Z,1018.76
2022-08-27T20:04:02.046Z,1018.76
2022-08-27T20:06:01.858Z,1018.92
2022-08-27T20:08:02.229Z,1018.92
2022-08-27T20:10:08.958Z,1018.86
2022-08-27T20:12:01.631Z,1018.86
2022-08-27T20:14:01.893Z,1018.86
2022-08-27T20:16:01.992Z,1018.86
2022-08-27T20:18:01.719Z,1018.85
2022-08-27T20:20:01.906Z,1018.85
2022-08-27T20:22:02.295Z,1018.87
2022-08-27T20:24:02.352Z,1018.87
2022-08-27T20:26:01.953Z,1018.89
2022-08-27T20:28:39.366Z,1018.89
2022-08-27T20:30:02.697Z,1018.9
2022-08-27T20:32:02.287Z,1018.9
2022-08-27T20:34:02.303Z,1018.94
2022-08-27T20:36:01.973Z,1018.94
2022-08-27T20:38:06.036Z,1018.86
2022-08-27T20:40:02.054Z,1018.86
2022-08-27T20:42:02.208Z,1018.91
2022-08-27T20:44:02.226Z,1018.91
2022-08-27T20:46:02.548Z,1018.87
2022-08-27T20:48:04.452Z,1018.87
2022-08-27T20:50:03.687Z,1018.96
2022-08-27T20:52:08.629Z,1018.96
2022-08-27T20:54:02.469Z,1018.92
2022-08-27T20:56:01.852Z,1018.92
2022-08-27T20:58:07.114Z,1018.94
2022-08-27T21:00:04.998Z,1018.94
2022-08-27T21:02:02.062Z,1018.98
2022-08-27T21:04:02.448Z,1018.98
2022-08-27T21:06:02.490Z,1018.95
2022-08-27T21:08:01.695Z,1018.95
2022-08-27T21:10:02.355Z,1018.94
2022-08-27T21:12:02.176Z,1018.94
2022-08-27T21:14:01.867Z,1019.03
2022-08-27T21:16:01.859Z,1019.03
2022-08-27T21:18:02.485Z,1019.05
2022-08-27T21:20:01.913Z,1019.05
2022-08-27T21:22:06.595Z,1019.01
2022-08-27T21:24:01.753Z,1019.01
2022-08-27T21:26:01.560Z,1019.04
2022-08-27T21:28:01.985Z,1019.04
2022-08-27T21:30:02.282Z,1019.13
2022-08-27T21:32:01.661Z,1019.13
2022-08-27T21:34:01.647Z,1019.11
2022-08-27T21:36:02.051Z,1019.11
2022-08-27T21:38:02.303Z,1019.11
2022-08-27T21:40:02.806Z,1019.11
2022-08-27T21:42:01.634Z,1019
2022-08-27T21:44:02.275Z,1019
2022-08-27T21:46:02.449Z,1019.04
2022-08-27T21:48:01.899Z,1019.04
2022-08-27T21:50:03.341Z,1019.12
2022-08-27T21:52:02.217Z,1019.12
2022-08-27T21:54:01.879Z,1019.2
2022-08-27T21:56:02.147Z,1019.2
2022-08-27T21:58:02.451Z,1019.14
2022-08-27T22:00:10.753Z,1019.15
2022-08-27T22:02:02.027Z,1019.15
2022-08-27T22:04:02.261Z,1019.13
2022-08-27T22:06:01.925Z,1019.13
2022-08-27T22:08:01.643Z,1019.11
2022-08-27T22:10:02.215Z,1019.11
2022-08-27T22:12:02.342Z,1018.99
2022-08-27T22:14:01.978Z,1018.99
2022-08-27T22:16:02.159Z,1019.17
2022-08-27T22:18:02.231Z,1019.17
2022-08-27T22:20:02.175Z,1019.19
2022-08-27T22:22:02.088Z,1019.19
2022-08-27T22:24:02.514Z,1019.18
2022-08-27T22:26:02.194Z,1019.18
2022-08-27T22:28:02.463Z,1019.21
2022-08-27T22:30:02.309Z,1019.21
2022-08-27T22:32:01.847Z,1019.18
2022-08-27T22:34:02.312Z,1019.18
2022-08-27T22:36:01.660Z,1019.22
2022-08-27T22:38:03.154Z,1019.22
2022-08-27T22:40:03.649Z,1019.23
2022-08-27T22:42:02.525Z,1019.23
2022-08-27T22:44:02.516Z,1019.33
2022-08-27T22:46:01.829Z,1019.33
2022-08-27T22:48:02.170Z,1019.3
2022-08-27T22:50:02.046Z,1019.3
2022-08-27T22:52:01.952Z,1019.25
2022-08-27T22:54:01.755Z,1019.25
2022-08-27T22:56:02.279Z,1019.28
2022-08-27T22:58:02.577Z,1019.28
2022-08-27T23:00:05.563Z,1019.28
2022-08-27T23:02:03.260Z,1019.28
2022-08-27T23:04:02.474Z,1019.3
2022-08-27T23:06:01.884Z,1019.3
2022-08-27T23:08:02.481Z,1019.31
2022-08-27T23:10:02.019Z,1019.31
2022-08-27T23:12:02.231Z,1019.36
2022-08-27T23:14:02.384Z,1019.36
2022-08-27T23:16:02.106Z,1019.41
2022-08-27T23:18:02.476Z,1019.41
2022-08-27T23:20:02.143Z,1019.35
2022-08-27T23:22:06.868Z,1019.35
2022-08-27T23:24:02.433Z,1019.32
2022-08-27T23:26:01.775Z,1019.32
2022-08-27T23:28:07.992Z,1019.37
2022-08-27T23:30:02.558Z,1019.37
2022-08-27T23:32:01.746Z,1019.38
2022-08-27T23:34:01.833Z,1019.38
2022-08-27T23:36:02.036Z,1019.37
2022-08-27T23:38:02.470Z,1019.37
2022-08-27T23:40:02.263Z,1019.48
2022-08-27T23:42:01.904Z,1019.48
2022-08-27T23:44:01.767Z,1019.45
2022-08-27T23:46:02.335Z,1019.45
2022-08-27T23:48:01.777Z,1019.5
2022-08-27T23:50:01.992Z,1019.5
2022-08-27T23:52:02.387Z,1019.45
2022-08-27T23:54:02.414Z,1019.45
2022-08-27T23:56:01.774Z,1019.44
2022-08-27T23:58:01.668Z,1019.44
